Time;durP1;ratioP1;P1;durP2;ratioP2;P2;SDS_P1;SDS_P2;PMS_P1;PMS_P2;Temp;Humidity;BMP_temperature;BMP_pressure;BME280_temperature;BME280_humidity;BME280_pressure;Samples;Min_cycle;Max_cycle;Signal;HPM_P1;HPM_P2
2022/09/05 00:00:10;;;;;;;4.37;2.73;;;;;;;18.53;55.66;101369.13;5025481;28;20301;-84
2022/09/05 00:02:44;;;;;;;3.80;2.70;;;;;;;18.52;55.82;101366.53;5024842;28;20203;-83
2022/09/05 00:05:40;;;;;;;3.83;2.73;;;;;;;18.48;55.71;101371.34;5027110;28;20199;-84
2022/09/05 00:08:17;;;;;;;3.50;2.77;;;;;;;18.45;56.06;101371.59;5026641;28;20227;-84
2022/09/05 00:10:54;;;;;;;3.20;2.90;;;;;;;18.42;55.50;101368.31;5025271;28;20216;-85
2022/09/05 00:13:24;;;;;;;3.20;2.90;;;;;;;18.39;55.96;101366.75;5029016;28;20294;-84
2022/09/05 00:16:03;;;;;;;3.73;2.80;;;;;;;18.35;56.11;101371.53;5022184;28;20315;-84
2022/09/05 00:18:51;;;;;;;3.43;3.13;;;;;;;18.32;56.26;101369.09;5024972;28;20204;-85
2022/09/05 00:21:32;;;;;;;3.30;2.83;;;;;;;18.30;56.26;101370.19;5029027;28;20282;-82
2022/09/05 00:24:17;;;;;;;2.80;2.60;;;;;;;18.27;56.25;101370.47;5030100;28;20283;-87
2022/09/05 00:26:55;;;;;;;3.27;2.73;;;;;;;18.22;56.33;101370.88;5024919;28;20232;-84
2022/09/05 00:29:39;;;;;;;2.60;2.40;;;;;;;18.19;56.42;101371.13;5027140;28;20216;-84
2022/09/05 00:32:14;;;;;;;3.07;2.83;;;;;;;18.16;56.46;101371.38;5030764;28;20205;-84
2022/09/05 00:35:07;;;;;;;2.93;2.70;;;;;;;18.12;56.79;101369.91;5023130;28;20713;-84
2022/09/05 00:37:39;;;;;;;3.90;3.50;;;;;;;18.08;56.96;101360.38;5021483;28;20672;-85
2022/09/05 00:40:21;;;;;;;5.23;2.60;;;;;;;18.05;56.71;101376.81;5028768;28;20354;-85
2022/09/05 00:42:51;;;;;;;2.77;2.50;;;;;;;18.03;57.15;101382.31;5025729;28;20667;-83
2022/09/05 00:45:26;;;;;;;3.23;2.77;;;;;;;17.99;57.17;101375.47;5027264;28;20200;-84
2022/09/05 00:47:59;;;;;;;3.07;2.77;;;;;;;17.95;57.30;101373.16;5022021;28;20636;-84
2022/09/05 00:50:30;;;;;;;3.13;2.93;;;;;;;17.91;57.50;101379.81;5023456;28;20204;-85
2022/09/05 00:53:07;;;;;;;3.20;2.70;;;;;;;17.89;57.49;101388.00;5028720;28;20613;-84
2022/09/05 00:55:41;;;;;;;3.37;2.47;;;;;;;17.87;57.75;101381.03;5027916;28;20218;-85
2022/09/05 00:58:26;;;;;;;3.20;2.90;;;;;;;17.85;57.72;101377.59;5025710;28;20225;-84
2022/09/05 01:00:55;;;;;;;3.43;2.90;;;;;;;17.83;57.79;101382.25;5024668;28;20230;-84
2022/09/05 01:03:32;;;;;;;2.83;2.60;;;;;;;17.79;57.59;101384.34;5020082;28;20597;-85
2022/09/05 01:06:17;;;;;;;3.07;2.77;;;;;;;17.78;57.71;101382.63;5030652;28;20250;-85
2022/09/05 01:09:04;;;;;;;3.27;2.73;;;;;;;17.76;57.83;101381.88;5025533;28;20759;-84
2022/09/05 01:11:42;;;;;;;3.03;2.73;;;;;;;17.74;57.86;101388.38;5025507;28;20213;-82
2022/09/05 01:14:25;;;;;;;3.23;2.93;;;;;;;17.71;58.03;101386.81;5028181;28;20282;-84
2022/09/05 01:17:12;;;;;;;3.17;2.60;;;;;;;17.68;58.05;101378.97;5021661;28;20286;-83
2022/09/05 01:19:53;;;;;;;3.53;3.23;;;;;;;17.63;58.50;101386.53;5024722;28;20590;-85
2022/09/05 01:22:38;;;;;;;3.53;3.23;;;;;;;17.58;58.54;101389.59;5019311;28;20201;-83
2022/09/05 01:25:19;;;;;;;2.90;2.70;;;;;;;17.56;58.68;101383.47;5027885;28;20194;-84
2022/09/05 01:27:55;;;;;;;3.40;3.10;;;;;;;17.52;58.69;101386.56;5019114;28;20227;-85
2022/09/05 01:30:24;;;;;;;3.60;3.30;;;;;;;17.48;58.87;101385.09;5028776;28;20228;-85
2022/09/05 01:33:00;;;;;;;3.80;3.50;;;;;;;17.43;59.03;101387.28;5025256;28;20209;-85
2022/09/05 01:35:45;;;;;;;3.43;3.13;;;;;;;17.38;59.49;101389.53;5022000;28;20667;-84
2022/09/05 01:38:23;;;;;;;3.57;3.27;;;;;;;17.31;59.29;101384.63;5020717;28;20217;-84
2022/09/05 01:41:04;;;;;;;3.97;3.57;;;;;;;17.24;59.47;101378.00;5025186;28;20260;-85
2022/09/05 01:43:52;;;;;;;2.93;2.73;;;;;;;17.17;59.70;101384.88;5029048;28;20587;-84
2022/09/05 01:46:30;;;;;;;3.47;3.17;;;;;;;17.11;60.00;101382.66;5023162;28;20225;-85
2022/09/05 01:49:01;;;;;;;3.10;2.90;;;;;;;17.07;60.32;101386.53;5026882;28;20292;-84
2022/09/05 01:51:36;;;;;;;3.40;3.10;;;;;;;17.04;60.49;101385.94;5018214;28;20206;-84
2022/09/05 01:54:16;;;;;;;3.47;3.07;;;;;;;17.03;60.75;101387.75;5021289;28;20280;-85
2022/09/05 01:56:55;;;;;;;4.40;3.17;;;;;;;17.00;60.58;101388.03;5019403;28;20308;-85
2022/09/05 01:59:33;;;;;;;3.30;3.00;;;;;;;16.98;61.11;101376.53;5025760;28;20206;-85
2022/09/05 02:02:23;;;;;;;3.30;3.00;;;;;;;16.95;60.97;101384.84;5022316;28;20207;-83
2022/09/05 02:05:09;;;;;;;4.20;3.10;;;;;;;16.93;60.90;101376.88;5019961;28;20220;-84
2022/09/05 02:07:52;;;;;;;3.23;2.93;;;;;;;16.90;60.82;101378.94;5026933;28;20227;-84
2022/09/05 02:10:39;;;;;;;5.57;3.00;;;;;;;16.88;61.19;101386.28;5029815;28;20223;-84
2022/09/05 02:13:16;;;;;;;3.30;3.00;;;;;;;16.84;61.21;101385.66;5020290;28;20205;-83
2022/09/05 02:15:46;;;;;;;3.90;2.77;;;;;;;16.81;61.48;101385.91;5013407;28;20202;-83
2022/09/05 02:18:19;;;;;;;3.63;3.33;;;;;;;16.80;61.56;101388.72;5020647;28;20205;-84
2022/09/05 02:20:51;;;;;;;3.10;2.83;;;;;;;16.78;61.49;101387.97;5026753;28;20217;-84
2022/09/05 02:23:32;;;;;;;3.60;3.30;;;;;;;16.75;61.53;101382.84;5029439;28;20193;-83
2022/09/05 02:26:05;;;;;;;3.47;2.90;;;;;;;16.75;61.48;101385.53;5030410;28;20205;-84
2022/09/05 02:28:40;;;;;;;3.00;2.70;;;;;;;16.74;61.43;101383.81;5018554;28;20217;-83
2022/09/05 02:31:16;;;;;;;3.27;3.00;;;;;;;16.72;61.41;101377.69;5011144;28;20201;-84
2022/09/05 02:33:48;;;;;;;4.27;3.20;;;;;;;16.70;61.30;101375.13;5014551;28;20203;-83
2022/09/05 02:36:27;;;;;;;3.13;2.80;;;;;;;16.71;61.39;101378.66;5017836;28;20228;-84
2022/09/05 02:38:59;;;;;;;3.10;2.87;;;;;;;16.69;61.46;101373.41;5027126;28;20569;-84
2022/09/05 02:41:32;;;;;;;3.23;2.90;;;;;;;16.68;61.49;101377.06;5025463;28;20305;-85
2022/09/05 02:44:03;;;;;;;3.80;2.87;;;;;;;16.65;61.49;101378.19;5017759;28;20204;-85
2022/09/05 02:46:43;;;;;;;3.17;2.60;;;;;;;16.64;61.60;101386.38;5017973;28;20226;-84
2022/09/05 02:49:13;;;;;;;4.17;2.97;;;;;;;16.61;61.79;101378.50;5026226;28;20239;-84
2022/09/05 02:51:49;;;;;;;4.83;3.10;;;;;;;16.60;61.89;101374.94;5020945;28;20211;-83
2022/09/05 02:54:20;;;;;;;4.03;3.63;;;;;;;16.58;61.83;101367.97;5029230;28;20204;-84
2022/09/05 02:56:57;;;;;;;3.33;3.03;;;;;;;16.57;61.62;101374.31;5017486;28;20259;-84
2022/09/05 02:59:41;;;;;;;4.27;2.93;;;;;;;16.53;61.91;101371.00;5022409;28;20191;-84
2022/09/05 03:02:21;;;;;;;3.33;3.03;;;;;;;16.50;62.03;101365.84;5028860;28;20199;-86
2022/09/05 03:04:52;;;;;;;3.37;3.07;;;;;;;16.47;62.04;101371.50;5031750;28;20294;-83
2022/09/05 03:07:41;;;;;;;3.67;3.37;;;;;;;16.46;62.07;101367.09;5025059;28;20313;-83
2022/09/05 03:10:24;;;;;;;4.07;3.67;;;;;;;16.45;62.19;101372.59;5048768;22;20363;-69
2022/09/05 03:13:13;;;;;;;3.80;3.50;;;;;;;16.43;62.34;101366.47;5026879;28;20218;-69
2022/09/05 03:16:21;;;;;;;4.23;3.43;;;;;;;16.41;62.58;101365.72;5027221;28;20307;-69
2022/09/05 03:19:24;;;;;;;3.90;3.27;;;;;;;16.39;62.52;101359.59;5023456;28;20313;-69
2022/09/05 03:22:23;;;;;;;3.20;3.00;;;;;;;16.36;62.66;101363.38;5019669;28;20232;-69
2022/09/05 03:25:17;;;;;;;4.17;3.70;;;;;;;16.31;62.50;101369.09;5019933;28;20300;-68
2022/09/05 03:28:23;;;;;;;3.90;3.50;;;;;;;16.19;62.01;101363.78;5026141;28;20207;-68
2022/09/05 03:31:05;;;;;;;4.03;3.63;;;;;;;16.08;62.31;101364.63;5022191;28;20727;-68
2022/09/05 03:34:02;;;;;;;3.87;3.53;;;;;;;16.00;62.60;101361.63;5024954;28;20593;-68
2022/09/05 03:36:59;;;;;;;5.50;3.70;;;;;;;15.93;63.02;101371.16;5020651;28;20203;-68
2022/09/05 03:40:09;;;;;;;4.53;4.10;;;;;;;15.88;63.71;101363.41;4989624;28;20214;-69
2022/09/05 03:42:48;;;;;;;4.70;3.70;;;;;;;15.87;63.98;101368.91;5025805;28;20237;-68
2022/09/05 03:45:28;;;;;;;3.60;3.20;;;;;;;15.84;64.27;101367.28;5026503;28;20212;-68
2022/09/05 03:48:32;;;;;;;5.17;3.47;;;;;;;15.85;64.49;101373.53;5026026;28;20680;-69
2022/09/05 03:51:13;;;;;;;3.50;3.20;;;;;;;15.83;64.73;101370.09;5012770;28;20210;-68
2022/09/05 03:54:08;;;;;;;6.10;4.40;;;;;;;15.81;64.71;101375.56;5018907;28;20211;-68
2022/09/05 03:56:55;;;;;;;4.10;3.80;;;;;;;15.77;64.93;101376.75;5023476;28;20642;-68
2022/09/05 03:59:49;;;;;;;4.50;3.60;;;;;;;15.73;65.04;101377.97;5025861;28;20220;-68
2022/09/05 04:02:22;;;;;;;3.97;3.67;;;;;;;15.71;65.61;101371.84;5024491;28;20244;-68
2022/09/05 04:04:53;;;;;;;4.37;3.87;;;;;;;15.70;65.67;101374.66;5025131;28;20203;-68
2022/09/05 04:07:24;;;;;;;4.07;3.63;;;;;;;15.71;66.02;101379.06;5024830;28;20206;-68
2022/09/05 04:09:58;;;;;;;4.47;3.43;;;;;;;15.70;66.09;101385.41;5024219;28;20221;-68
2022/09/05 04:12:31;;;;;;;4.00;3.60;;;;;;;15.70;66.36;101380.88;5025148;28;20242;-68
2022/09/05 04:15:01;;;;;;;4.07;3.70;;;;;;;15.69;66.51;101389.06;5020668;28;20703;-68
2022/09/05 04:17:35;;;;;;;4.83;3.90;;;;;;;15.69;66.39;101392.59;5024620;28;20206;-68
2022/09/05 04:20:08;;;;;;;6.03;4.23;;;;;;;15.68;66.56;101393.56;5026818;28;20210;-68
2022/09/05 04:22:50;;;;;;;6.10;3.87;;;;;;;15.64;66.63;101394.75;5023864;28;20230;-69
2022/09/05 04:25:31;;;;;;;6.67;4.70;;;;;;;15.62;66.82;101396.69;5027564;28;20209;-69
2022/09/05 04:28:08;;;;;;;6.13;4.03;;;;;;;15.59;66.77;101389.69;5020838;28;20694;-69
2022/09/05 04:30:44;;;;;;;4.90;4.27;;;;;;;15.59;67.43;101391.53;5019757;28;20214;-68
2022/09/05 04:33:20;;;;;;;4.80;4.10;;;;;;;15.58;67.16;101392.53;5018283;28;20241;-69
2022/09/05 04:35:56;;;;;;;5.50;4.80;;;;;;;15.59;67.37;101391.53;5023845;28;20202;-69
2022/09/05 04:38:35;;;;;;;5.13;4.67;;;;;;;15.59;67.51;101388.84;5025335;28;20448;-68
2022/09/05 04:41:08;;;;;;;5.07;4.60;;;;;;;15.60;67.57;101391.41;5018590;28;20356;-69
2022/09/05 04:43:40;;;;;;;5.10;4.20;;;;;;;15.60;67.33;101399.47;5024311;28;20280;-68
2022/09/05 04:46:14;;;;;;;5.33;4.30;;;;;;;15.61;67.50;101403.03;5020367;28;20232;-68
2022/09/05 04:48:47;;;;;;;6.40;5.77;;;;;;;15.61;67.56;101401.19;5027941;28;20198;-68
2022/09/05 04:51:44;;;;;;;5.43;4.70;;;;;;;15.59;67.32;101405.81;5021123;28;20254;-68
2022/09/05 04:54:26;;;;;;;7.40;4.60;;;;;;;15.55;67.78;101403.44;5020493;28;20673;-68
2022/09/05 04:56:59;;;;;;;7.47;4.30;;;;;;;15.53;68.08;101406.25;5024371;28;20216;-68
2022/09/05 04:59:36;;;;;;;7.03;4.20;;;;;;;15.53;68.19;101418.81;5024037;28;20207;-68
2022/09/05 05:02:10;;;;;;;7.33;4.13;;;;;;;15.54;68.12;101415.16;5023763;28;20234;-67
2022/09/05 05:04:37;;;;;;;5.73;4.23;;;;;;;15.54;68.24;101418.69;5022915;28;20209;-68
2022/09/05 05:07:11;;;;;;;4.97;3.90;;;;;;;15.55;68.16;101427.63;5023458;28;20681;-69
2022/09/05 05:09:43;;;;;;;4.27;3.83;;;;;;;15.57;67.80;101433.78;5023275;28;20587;-69
2022/09/05 05:12:21;;;;;;;4.10;3.70;;;;;;;15.57;68.01;101428.41;5025332;28;20266;-69
2022/09/05 05:14:52;;;;;;;3.93;3.43;;;;;;;15.59;67.94;101429.13;5026695;28;20221;-68
2022/09/05 05:17:31;;;;;;;3.43;3.03;;;;;;;15.59;67.70;101429.97;5024162;28;20203;-69
2022/09/05 05:20:08;;;;;;;3.80;3.40;;;;;;;15.60;67.90;101431.69;5018620;28;20206;-68
2022/09/05 05:22:37;;;;;;;4.63;3.67;;;;;;;15.61;67.57;101433.41;5018969;28;20286;-69
2022/09/05 05:25:10;;;;;;;4.37;3.97;;;;;;;15.64;67.57;101440.41;5024745;28;20209;-66
2022/09/05 05:27:44;;;;;;;4.43;4.00;;;;;;;15.66;67.52;101443.84;5023733;28;20316;-69
2022/09/05 05:30:12;;;;;;;7.63;3.87;;;;;;;15.69;67.65;101435.56;5016146;28;20668;-70
2022/09/05 05:32:43;;;;;;;4.40;4.00;;;;;;;15.72;67.60;101432.66;5021621;28;20225;-69
2022/09/05 05:35:12;;;;;;;5.77;3.90;;;;;;;15.75;67.28;101440.50;5019950;28;20213;-69
2022/09/05 05:37:44;;;;;;;4.33;3.57;;;;;;;15.78;67.39;101434.03;5014680;28;20202;-70
2022/09/05 05:40:24;;;;;;;4.70;3.57;;;;;;;15.81;67.06;101440.03;5009750;28;20594;-70
2022/09/05 05:42:53;;;;;;;5.73;3.97;;;;;;;15.85;67.16;101436.16;5010273;28;20238;-69
2022/09/05 05:45:24;;;;;;;5.23;3.97;;;;;;;15.90;67.32;101442.06;5010204;28;20203;-70
2022/09/05 05:47:54;;;;;;;6.63;4.23;;;;;;;15.95;67.23;101447.94;5026209;28;20243;-69
2022/09/05 05:50:35;;;;;;;3.70;3.40;;;;;;;16.02;67.13;101445.66;5023940;28;20210;-69
2022/09/05 05:53:25;;;;;;;4.87;3.93;;;;;;;16.10;67.37;101445.97;5010289;28;20279;-70
2022/09/05 05:56:15;;;;;;;4.83;3.77;;;;;;;16.17;67.30;101444.53;5017747;28;20200;-69
2022/09/05 05:59:03;;;;;;;4.30;3.90;;;;;;;16.24;67.24;101451.19;5014057;28;20208;-70
2022/09/05 06:02:19;;;;;;;4.30;3.87;;;;;;;16.33;67.40;101457.69;5013223;28;20614;-70
2022/09/05 06:05:27;;;;;;;8.53;4.00;;;;;;;16.41;67.50;101457.13;4975664;28;20676;-69
2022/09/05 06:08:07;;;;;;;4.03;3.70;;;;;;;16.51;67.56;101461.69;4964387;28;20217;-70
2022/09/05 06:10:51;;;;;;;5.77;3.97;;;;;;;16.62;67.57;101464.44;5016508;28;20215;-69
2022/09/05 06:13:44;;;;;;;4.80;3.90;;;;;;;16.73;67.37;101463.66;5008985;28;20232;-70
2022/09/05 06:16:47;;;;;;;5.07;3.70;;;;;;;16.83;66.85;101461.13;5021681;28;20221;-70
2022/09/05 06:19:42;;;;;;;13.03;4.33;;;;;;;16.90;66.48;101454.28;5012719;28;20218;-70
2022/09/05 06:22:44;;;;;;;4.50;4.10;;;;;;;16.96;66.41;101453.81;5026954;28;20309;-70
2022/09/05 06:25:55;;;;;;;6.93;4.00;;;;;;;17.02;66.36;101458.72;5021789;28;20747;-70
2022/09/05 06:28:34;;;;;;;4.50;4.00;;;;;;;17.07;66.40;101459.22;5009015;28;20210;-69
2022/09/05 06:31:15;;;;;;;5.10;4.03;;;;;;;17.13;66.45;101442.59;5009234;28;20212;-70
2022/09/05 06:33:58;;;;;;;5.00;4.60;;;;;;;17.21;66.59;101448.22;5008700;28;20200;-70
2022/09/05 06:36:37;;;;;;;5.33;4.40;;;;;;;17.30;66.31;101452.03;5018925;28;20202;-70
2022/09/05 06:39:12;;;;;;;7.27;4.43;;;;;;;17.42;66.40;101439.44;5016513;28;20569;-70
2022/09/05 06:41:50;;;;;;;6.57;4.83;;;;;;;17.55;66.21;101445.56;5019045;28;20238;-70
2022/09/05 06:44:39;;;;;;;4.80;4.40;;;;;;;17.71;65.83;101447.94;5021649;28;20693;-70
2022/09/05 06:47:10;;;;;;;5.63;4.83;;;;;;;17.79;65.34;101454.41;5014667;28;20222;-69
2022/09/05 06:49:55;;;;;;;5.07;4.57;;;;;;;17.91;65.08;101457.94;5012438;28;20207;-70
2022/09/05 06:53:02;;;;;;;4.67;4.00;;;;;;;18.02;64.75;101456.09;5017108;28;20237;-69
2022/09/05 06:55:58;;;;;;;7.73;4.97;;;;;;;18.16;64.75;101454.94;4997839;28;20211;-69
2022/09/05 06:58:51;;;;;;;5.73;4.50;;;;;;;18.29;64.60;101455.63;5026687;28;20211;-70
2022/09/05 07:01:25;;;;;;;8.13;4.87;;;;;;;18.41;64.17;101447.53;4991291;28;20228;-70
2022/09/05 07:04:11;;;;;;;6.03;4.47;;;;;;;18.48;63.73;101446.88;5015694;28;20630;-69
2022/09/05 07:06:59;;;;;;;6.07;4.77;;;;;;;18.51;63.28;101443.06;5016646;28;20606;-70
2022/09/05 07:09:30;;;;;;;5.10;4.43;;;;;;;18.61;63.50;101452.13;5023812;28;20216;-70
2022/09/05 07:12:11;;;;;;;6.50;4.87;;;;;;;18.72;63.92;101450.22;5020893;28;20232;-69
2022/09/05 07:14:54;;;;;;;4.93;4.43;;;;;;;18.81;63.04;101450.47;5010004;28;20637;-70
2022/09/05 07:17:31;;;;;;;5.07;4.57;;;;;;;18.87;62.99;101448.06;5016408;28;20209;-70
2022/09/05 07:20:01;;;;;;;5.70;5.20;;;;;;;18.94;62.67;101451.09;5017601;28;20223;-69
2022/09/05 07:22:35;;;;;;;5.07;4.50;;;;;;;19.04;62.63;101455.56;5016291;28;20713;-70
2022/09/05 07:25:07;;;;;;;6.87;5.40;;;;;;;19.22;62.84;101455.81;5016989;28;20301;-70
2022/09/05 07:27:36;;;;;;;5.00;4.60;;;;;;;19.34;61.72;101459.31;5012248;28;20205;-69
2022/09/05 07:30:04;;;;;;;5.57;5.10;;;;;;;19.39;61.51;101460.59;5021616;28;20325;-70
2022/09/05 07:32:40;;;;;;;6.63;5.07;;;;;;;19.43;61.19;101466.59;5016451;28;20226;-69
2022/09/05 07:35:11;;;;;;;6.10;5.27;;;;;;;19.49;61.33;101467.91;5020298;28;20206;-70
2022/09/05 07:37:43;;;;;;;6.53;5.27;;;;;;;19.55;61.25;101465.56;5023716;28;20587;-69
2022/09/05 07:40:15;;;;;;;6.67;5.20;;;;;;;19.67;61.21;101474.44;5015495;28;20209;-70
2022/09/05 07:42:47;;;;;;;4.90;4.40;;;;;;;19.76;60.98;101479.88;5016253;28;20234;-69
2022/09/05 07:45:22;;;;;;;5.30;4.70;;;;;;;19.87;60.47;101481.63;5025578;28;20213;-70
2022/09/05 07:47:57;;;;;;;5.63;4.90;;;;;;;20.00;60.51;101474.13;5021181;28;20225;-69
2022/09/05 07:50:26;;;;;;;5.43;4.20;;;;;;;20.12;59.91;101466.75;5022824;28;20257;-70
2022/09/05 07:52:57;;;;;;;5.07;4.53;;;;;;;20.28;59.91;101464.34;5028337;28;20245;-69
2022/09/05 07:55:28;;;;;;;6.87;4.43;;;;;;;20.41;59.32;101473.13;5026529;28;20216;-70
2022/09/05 07:57:59;;;;;;;4.60;4.20;;;;;;;20.50;58.83;101467.84;5018625;28;20215;-70
2022/09/05 08:00:28;;;;;;;5.23;4.20;;;;;;;20.59;58.29;101475.97;5029274;28;20579;-69
2022/09/05 08:02:55;;;;;;;5.10;4.60;;;;;;;20.69;58.25;101476.81;5022447;28;20709;-70
2022/09/05 08:05:25;;;;;;;4.63;4.23;;;;;;;20.80;57.69;101478.50;5030373;28;20211;-70
2022/09/05 08:07:57;;;;;;;5.03;4.50;;;;;;;20.94;57.52;101474.53;5025955;28;20208;-69
2022/09/05 08:10:30;;;;;;;4.72;4.32;;;;;;;21.09;57.12;101465.81;5015134;28;20213;-69
2022/09/05 08:13:02;;;;;;;4.65;4.05;;;;;;;21.20;56.65;101464.81;5022443;28;20232;-70
2022/09/05 08:15:30;;;;;;;4.85;4.40;;;;;;;21.32;56.59;101476.31;5028782;28;20807;-69
2022/09/05 08:18:10;;;;;;;5.00;4.50;;;;;;;21.42;56.25;101472.59;5024700;28;20202;-70
2022/09/05 08:20:42;;;;;;;4.50;4.07;;;;;;;21.52;55.77;101472.56;5027378;28;20576;-69
2022/09/05 08:23:24;;;;;;;6.65;4.60;;;;;;;21.62;55.52;101478.81;5022428;28;20231;-70
2022/09/05 08:25:58;;;;;;;5.13;4.50;;;;;;;21.68;55.09;101478.19;5028988;28;20206;-69
2022/09/05 08:28:31;;;;;;;5.20;4.63;;;;;;;21.75;54.87;101475.75;5016577;28;20210;-69
2022/09/05 08:31:05;;;;;;;4.78;4.38;;;;;;;21.86;54.89;101474.69;5016236;28;20724;-70
2022/09/05 08:33:34;;;;;;;5.07;4.57;;;;;;;21.95;54.74;101471.94;5016995;28;20240;-70
2022/09/05 08:36:07;;;;;;;7.53;4.78;;;;;;;22.08;54.60;101474.34;5021394;28;20209;-70
2022/09/05 08:38:39;;;;;;;4.85;4.25;;;;;;;22.12;54.06;101470.31;5025085;28;20219;-70
2022/09/05 08:41:14;;;;;;;6.25;4.45;;;;;;;22.15;53.46;101473.59;5017015;28;20215;-70
2022/09/05 08:43:50;;;;;;;5.03;4.63;;;;;;;22.08;53.17;101464.34;5029850;28;20236;-69
2022/09/05 08:46:25;;;;;;;4.60;4.20;;;;;;;22.05;53.65;101463.78;5022431;28;20214;-70
2022/09/05 08:49:12;;;;;;;6.90;4.90;;;;;;;22.05;53.90;101459.22;5019502;28;20211;-70
2022/09/05 08:51:41;;;;;;;6.00;4.28;;;;;;;22.10;53.85;101458.75;5020125;28;20230;-70
2022/09/05 08:54:18;;;;;;;5.05;4.65;;;;;;;22.13;53.87;101462.03;5026879;28;20214;-70
2022/09/05 08:56:54;;;;;;;6.85;4.57;;;;;;;22.23;54.26;101461.09;5028975;28;20217;-70
2022/09/05 08:59:36;;;;;;;6.75;4.63;;;;;;;22.37;54.14;101452.44;5023504;28;20213;-70
2022/09/05 09:02:37;;;;;;;5.30;4.82;;;;;;;22.53;53.94;101455.31;5016471;28;20237;-69
2022/09/05 09:05:12;;;;;;;5.95;5.05;;;;;;;22.60;53.17;101442.81;5014131;28;20693;-70
2022/09/05 09:07:44;;;;;;;5.75;5.13;;;;;;;22.64;53.25;101441.50;5024290;28;20693;-69
2022/09/05 09:10:27;;;;;;;7.57;5.00;;;;;;;22.73;53.41;101437.88;5018359;28;20217;-70
2022/09/05 09:13:08;;;;;;;5.25;4.80;;;;;;;22.79;53.30;101437.25;5023209;28;20477;-70
2022/09/05 09:15:38;;;;;;;5.63;4.65;;;;;;;22.88;53.02;101426.47;5010858;28;20206;-69
2022/09/05 09:18:13;;;;;;;5.25;4.60;;;;;;;22.97;52.93;101422.78;5016776;28;20212;-70
2022/09/05 09:20:48;;;;;;;5.10;4.60;;;;;;;23.06;53.18;101432.72;5014962;28;20236;-70
2022/09/05 09:23:30;;;;;;;5.30;4.90;;;;;;;23.19;53.06;101428.56;5045929;22;21598;-69
2022/09/05 09:26:07;;;;;;;4.80;4.40;;;;;;;23.32;52.26;101422.69;5054229;28;20208;-70
2022/09/05 09:28:45;;;;;;;6.15;5.00;;;;;;;23.38;51.93;101427.47;5061195;28;20202;-70
2022/09/05 09:31:24;;;;;;;5.53;4.95;;;;;;;23.42;52.05;101428.00;5051422;28;20555;-70
2022/09/05 09:34:19;;;;;;;6.47;4.75;;;;;;;23.49;52.07;101434.50;5061170;28;20225;-70
2022/09/05 09:37:09;;;;;;;6.28;5.10;;;;;;;23.57;51.87;101426.41;5047408;28;21585;-70
2022/09/05 09:39:55;;;;;;;5.40;4.82;;;;;;;23.66;52.04;101430.88;5048206;28;20221;-70
2022/09/05 09:42:34;;;;;;;5.28;4.80;;;;;;;23.79;51.70;101412.25;5048184;28;20232;-70
2022/09/05 09:45:25;;;;;;;5.25;4.75;;;;;;;23.88;51.01;101422.13;5048599;28;20253;-70
2022/09/05 09:48:28;;;;;;;5.65;4.82;;;;;;;24.03;51.55;101418.75;5042999;28;20220;-71
2022/09/05 09:51:25;;;;;;;5.32;4.75;;;;;;;24.24;50.86;101419.19;5052343;28;20208;-69
2022/09/05 09:54:08;;;;;;;5.72;4.35;;;;;;;24.35;49.83;101412.59;5048334;28;20217;-71
2022/09/05 09:56:57;;;;;;;5.32;4.75;;;;;;;24.41;49.97;101404.56;5045921;28;20284;-70
2022/09/05 09:59:54;;;;;;;5.80;4.85;;;;;;;24.43;49.50;101412.56;5046640;28;20700;-70
2022/09/05 10:02:47;;;;;;;8.25;5.07;;;;;;;24.43;49.40;101415.31;5038313;28;20710;-71
2022/09/05 10:05:33;;;;;;;6.53;4.47;;;;;;;24.47;49.36;101408.50;5043250;28;20229;-71
2022/09/05 10:08:11;;;;;;;4.90;4.40;;;;;;;24.55;49.54;101411.22;5047274;28;20201;-71
2022/09/05 10:11:15;;;;;;;4.82;4.53;;;;;;;24.61;49.39;101402.38;5047361;28;20201;-70
2022/09/05 10:14:42;;;;;;;5.47;4.30;;;;;;;24.71;49.65;101394.03;5003990;28;20312;-70
2022/09/05 10:17:27;;;;;;;5.78;4.43;;;;;;;24.77;49.52;101393.34;4969145;28;20211;-71
2022/09/05 10:20:23;;;;;;;4.93;4.43;;;;;;;24.82;49.20;101397.25;4999660;28;20202;-71
2022/09/05 10:23:25;;;;;;;4.90;4.50;;;;;;;24.88;49.29;101393.00;5032803;28;20236;-70
2022/09/05 10:26:31;;;;;;;5.78;4.63;;;;;;;24.91;48.69;101396.22;5046609;28;20689;-70
2022/09/05 10:29:06;;;;;;;5.30;4.80;;;;;;;24.95;48.83;101398.63;5047397;28;20208;-70
2022/09/05 10:31:55;;;;;;;5.00;4.28;;;;;;;24.96;48.78;101381.25;5047847;28;20215;-70
2022/09/05 10:34:25;;;;;;;5.32;4.93;;;;;;;24.99;48.97;101381.78;5043134;28;20285;-70
2022/09/05 10:36:56;;;;;;;4.80;4.40;;;;;;;25.03;48.87;101382.28;5042808;28;20717;-71
2022/09/05 10:39:27;;;;;;;4.25;3.90;;;;;;;25.08;48.98;101377.16;5046077;28;20593;-70
2022/09/05 10:41:58;;;;;;;4.80;4.40;;;;;;;25.15;48.22;101375.44;5046884;28;20205;-71
2022/09/05 10:44:37;;;;;;;6.45;4.47;;;;;;;25.18;48.62;101378.66;5046687;28;20222;-70
2022/09/05 10:47:15;;;;;;;5.53;4.60;;;;;;;25.22;48.25;101371.84;5047870;28;20205;-70
2022/09/05 10:49:48;;;;;;;4.53;4.13;;;;;;;25.23;48.49;101372.69;5046224;28;20216;-71
2022/09/05 10:52:22;;;;;;;6.50;4.70;;;;;;;25.29;48.63;101361.06;5047506;28;20197;-69
2022/09/05 10:55:05;;;;;;;4.90;4.35;;;;;;;25.37;48.40;101362.94;5047202;28;20221;-71
2022/09/05 10:57:40;;;;;;;4.53;4.13;;;;;;;25.38;48.20;101356.44;5046572;28;20582;-71
2022/09/05 11:00:29;;;;;;;4.90;4.50;;;;;;;25.38;47.60;101349.13;5041588;28;20569;-69
2022/09/05 11:03:00;;;;;;;5.22;4.70;;;;;;;25.38;47.81;101351.00;5046646;28;20232;-70
2022/09/05 11:05:30;;;;;;;5.75;4.53;;;;;;;25.38;47.52;101346.41;5046274;28;20635;-69
2022/09/05 11:08:07;;;;;;;5.15;4.40;;;;;;;25.41;47.27;101353.38;5041667;28;20205;-70
2022/09/05 11:10:37;;;;;;;4.72;4.30;;;;;;;25.45;47.05;101335.59;5045979;28;20219;-71
2022/09/05 11:13:20;;;;;;;6.25;4.28;;;;;;;25.50;47.27;101347.69;5045068;28;20197;-71
2022/09/05 11:15:58;;;;;;;6.43;4.43;;;;;;;25.58;46.74;101347.66;5045849;28;20213;-70
2022/09/05 11:18:49;;;;;;;7.00;3.90;;;;;;;25.66;46.52;101338.59;5043996;28;20208;-70
2022/09/05 11:21:24;;;;;;;5.35;3.80;;;;;;;25.78;46.53;101333.63;5045195;28;20694;-70
2022/09/05 11:23:55;;;;;;;5.97;3.88;;;;;;;25.86;46.29;101331.69;5050331;28;20224;-71
2022/09/05 11:26:33;;;;;;;5.43;4.03;;;;;;;25.94;46.05;101334.38;5049231;28;20255;-70
2022/09/05 11:29:04;;;;;;;7.13;3.63;;;;;;;26.02;45.12;101327.97;5049925;28;20276;-71
2022/09/05 11:31:43;;;;;;;4.25;3.70;;;;;;;26.13;45.10;101329.47;5051024;28;20304;-71
2022/09/05 11:34:36;;;;;;;4.95;4.00;;;;;;;26.23;44.96;101327.31;5048151;28;20718;-70
2022/09/05 11:37:13;;;;;;;4.68;3.83;;;;;;;26.35;44.55;101316.84;5049252;28;20204;-70
2022/09/05 11:40:14;;;;;;;3.80;3.50;;;;;;;26.42;43.91;101320.53;5047587;28;20209;-71
2022/09/05 11:42:54;;;;;;;4.80;3.60;;;;;;;26.45;44.05;101315.56;5049414;28;20232;-71
2022/09/05 11:45:58;;;;;;;4.70;4.20;;;;;;;26.52;43.70;101311.03;5051547;28;20574;-71
2022/09/05 11:48:48;;;;;;;4.93;3.50;;;;;;;26.59;43.27;101311.16;5046980;28;20197;-70
2022/09/05 11:51:41;;;;;;;4.03;3.72;;;;;;;26.70;43.68;101302.50;5050620;28;20212;-69
2022/09/05 11:54:36;;;;;;;6.28;4.15;;;;;;;26.84;43.16;101312.63;5050162;28;20240;-70
2022/09/05 11:57:30;;;;;;;3.88;3.30;;;;;;;27.00;43.21;101305.31;5038191;28;20596;-70
2022/09/05 12:00:07;;;;;;;7.38;4.55;;;;;;;27.14;42.67;101298.97;5050426;28;20205;-70
2022/09/05 12:02:54;;;;;;;4.43;3.80;;;;;;;27.26;42.73;101292.81;5047761;28;20224;-70
2022/09/05 12:05:39;;;;;;;3.40;3.10;;;;;;;27.38;42.19;101293.22;5047072;28;21091;-70
2022/09/05 12:08:10;;;;;;;5.38;3.47;;;;;;;27.45;41.71;101291.38;5048409;28;20213;-71
2022/09/05 12:10:51;;;;;;;8.40;3.97;;;;;;;27.53;41.59;101283.06;5048798;28;20695;-69
2022/09/05 12:13:34;;;;;;;5.05;4.10;;;;;;;27.57;41.60;101292.63;5047393;28;20225;-70
2022/09/05 12:16:00;;;;;;;4.45;4.05;;;;;;;27.62;41.21;101281.09;5048028;28;20596;-71
2022/09/05 12:18:35;;;;;;;5.88;4.15;;;;;;;27.63;41.10;101280.91;5048689;28;20748;-70
2022/09/05 12:21:18;;;;;;;5.15;3.40;;;;;;;27.63;41.41;101278.16;5048647;28;20670;-71
2022/09/05 12:23:53;;;;;;;4.95;4.00;;;;;;;27.70;41.06;101277.41;5047307;28;20232;-70